Time;durP1;ratioP1;P1;durP2;ratioP2;P2;SDS_P1;SDS_P2;PMS_P1;PMS_P2;Temp;Humidity;BMP_temperature;BMP_pressure;BME280_temperature;BME280_humidity;BME280_pressure;Samples;Min_cycle;Max_cycle;Signal;HPM_P1;HPM_P2
2022/08/25 00:00:43;;;;;;;6.80;1.30;;;;;;;;;;4993504;28;20454;-68
2022/08/25 00:03:12;;;;;;;5.68;1.40;;;;;;;;;;4993743;28;20056;-68
2022/08/25 00:05:38;;;;;;;6.35;1.40;;;;;;;;;;5009279;28;20388;-68
2022/08/25 00:08:05;;;;;;;4.30;1.33;;;;;;;;;;4992841;28;20042;-67
2022/08/25 00:10:33;;;;;;;7.35;1.60;;;;;;;;;;5011017;28;20454;-68
2022/08/25 00:13:00;;;;;;;4.72;1.20;;;;;;;;;;5011511;28;20038;-67
2022/08/25 00:15:30;;;;;;;7.15;1.98;;;;;;;;;;5010409;28;20056;-68
2022/08/25 00:17:57;;;;;;;7.28;1.30;;;;;;;;;;5009877;28;20427;-66
2022/08/25 00:20:24;;;;;;;5.78;1.40;;;;;;;;;;5010817;28;20046;-68
2022/08/25 00:22:50;;;;;;;5.00;1.30;;;;;;;;;;5010528;28;20046;-68
2022/08/25 00:25:17;;;;;;;6.47;1.75;;;;;;;;;;5010002;28;20049;-68
2022/08/25 00:27:43;;;;;;;7.22;1.67;;;;;;;;;;4991022;28;20050;-67
2022/08/25 00:30:13;;;;;;;4.97;1.33;;;;;;;;;;4991339;28;20382;-67
2022/08/25 00:32:39;;;;;;;4.78;1.17;;;;;;;;;;4991775;28;20054;-66
2022/08/25 00:35:05;;;;;;;5.75;1.40;;;;;;;;;;4991757;28;20133;-67
2022/08/25 00:37:31;;;;;;;4.35;1.13;;;;;;;;;;4991342;28;20049;-68
2022/08/25 00:39:57;;;;;;;5.30;1.65;;;;;;;;;;4991004;28;20054;-68
2022/08/25 00:42:25;;;;;;;6.55;1.52;;;;;;;;;;4991334;28;20523;-67
2022/08/25 00:44:51;;;;;;;4.80;1.50;;;;;;;;;;4990408;28;20050;-71
2022/08/25 00:47:17;;;;;;;5.18;1.42;;;;;;;;;;4995630;28;20046;-67
2022/08/25 00:49:48;;;;;;;5.75;1.70;;;;;;;;;;4994943;28;20046;-66
2022/08/25 00:52:16;;;;;;;5.32;1.50;;;;;;;;;;4994063;28;20042;-67
2022/08/25 00:54:53;;;;;;;3.35;1.08;;;;;;;;;;4992771;28;20054;-66
2022/08/25 00:57:32;;;;;;;6.95;1.70;;;;;;;;;;4993596;28;20141;-67
2022/08/25 00:59:58;;;;;;;8.50;1.30;;;;;;;;;;4994030;28;20680;-67
2022/08/25 01:02:24;;;;;;;3.70;1.40;;;;;;;;;;4994627;28;20061;-67
2022/08/25 01:04:49;;;;;;;6.05;1.40;;;;;;;;;;4993604;28;20483;-67
2022/08/25 01:07:18;;;;;;;6.88;1.30;;;;;;;;;;4993809;28;20060;-66
2022/08/25 01:09:46;;;;;;;4.93;1.23;;;;;;;;;;4992830;28;20050;-67
2022/08/25 01:12:12;;;;;;;6.15;1.13;;;;;;;;;;4994155;28;20054;-68
2022/08/25 01:14:39;;;;;;;5.28;1.25;;;;;;;;;;5012442;28;20500;-68
2022/08/25 01:17:05;;;;;;;8.75;1.50;;;;;;;;;;4981343;28;20510;-67
2022/08/25 01:19:32;;;;;;;4.15;1.55;;;;;;;;;;5014147;28;20117;-66
2022/08/25 01:21:59;;;;;;;7.10;1.50;;;;;;;;;;5012727;28;20085;-68
2022/08/25 01:24:36;;;;;;;5.18;1.30;;;;;;;;;;5012683;28;20507;-69
2022/08/25 01:27:02;;;;;;;7.57;1.40;;;;;;;;;;5013499;28;20514;-68
2022/08/25 01:29:29;;;;;;;8.57;1.90;;;;;;;;;;5007432;28;20109;-67
2022/08/25 01:31:58;;;;;;;7.72;1.70;;;;;;;;;;4993804;28;20411;-67
2022/08/25 01:34:27;;;;;;;4.97;1.30;;;;;;;;;;4993693;28;20089;-68
2022/08/25 01:36:54;;;;;;;7.43;1.48;;;;;;;;;;4992913;28;20046;-67
2022/08/25 01:39:21;;;;;;;7.72;1.48;;;;;;;;;;4993153;28;20105;-67
2022/08/25 01:42:45;;;;;;;7.15;1.30;;;;;;;;;;4992387;28;20151;-68
2022/08/25 01:45:11;;;;;;;7.93;1.58;;;;;;;;;;4913310;29;20158;-67
2022/08/25 01:47:37;;;;;;;4.40;1.42;;;;;;;;;;4913491;29;20302;-67
2022/08/25 01:50:05;;;;;;;8.90;1.75;;;;;;;;;;4913694;29;20079;-67
2022/08/25 01:53:08;;;;;;;4.88;1.23;;;;;;;;;;4913702;29;20059;-67
2022/08/25 01:55:50;;;;;;;5.97;1.60;;;;;;;;;;4886591;29;20620;-67
2022/08/25 01:58:28;;;;;;;9.65;1.80;;;;;;;;;;4893862;29;20067;-67
2022/08/25 02:00:57;;;;;;;6.82;1.92;;;;;;;;;;4894427;29;20056;-67
2022/08/25 02:03:24;;;;;;;8.80;2.42;;;;;;;;;;4898788;29;20125;-67
2022/08/25 02:05:52;;;;;;;9.10;1.90;;;;;;;;;;4912795;29;20286;-67
2022/08/25 02:08:18;;;;;;;6.57;2.05;;;;;;;;;;4912656;29;20611;-66
2022/08/25 02:10:45;;;;;;;9.85;2.13;;;;;;;;;;4914205;29;20502;-67
2022/08/25 02:13:11;;;;;;;6.25;1.80;;;;;;;;;;4912839;29;20048;-71
2022/08/25 02:15:43;;;;;;;13.05;2.25;;;;;;;;;;4941997;28;20054;-66
2022/08/25 02:18:09;;;;;;;6.30;1.92;;;;;;;;;;4991818;28;20108;-67
2022/08/25 02:20:36;;;;;;;8.57;1.80;;;;;;;;;;4997828;28;20052;-69
2022/08/25 02:23:03;;;;;;;9.13;1.98;;;;;;;;;;4993170;28;20058;-68
2022/08/25 02:25:30;;;;;;;8.25;1.60;;;;;;;;;;5009776;28;20050;-67
2022/08/25 02:27:55;;;;;;;8.35;1.80;;;;;;;;;;4975187;28;20046;-68
2022/08/25 02:30:22;;;;;;;7.78;2.05;;;;;;;;;;4991282;28;20054;-67
2022/08/25 02:32:48;;;;;;;6.35;1.70;;;;;;;;;;4991659;28;20049;-67
2022/08/25 02:35:14;;;;;;;6.70;1.83;;;;;;;;;;4977837;28;20051;-66
2022/08/25 02:37:40;;;;;;;7.32;1.90;;;;;;;;;;4993800;28;20054;-68
2022/08/25 02:40:06;;;;;;;7.82;1.70;;;;;;;;;;4990633;28;20343;-67
2022/08/25 02:42:32;;;;;;;11.38;2.05;;;;;;;;;;4991525;28;20488;-67
2022/08/25 02:44:58;;;;;;;7.22;1.70;;;;;;;;;;4991082;28;20824;-68
2022/08/25 02:47:24;;;;;;;8.80;1.80;;;;;;;;;;5006190;28;20050;-67
2022/08/25 02:49:51;;;;;;;6.82;1.60;;;;;;;;;;5010447;28;20057;-66
2022/08/25 02:52:17;;;;;;;8.95;1.90;;;;;;;;;;5010957;28;20463;-67
2022/08/25 02:54:43;;;;;;;5.95;1.60;;;;;;;;;;5008814;28;20060;-65
2022/08/25 02:57:10;;;;;;;6.50;1.67;;;;;;;;;;5010694;28;20050;-65
2022/08/25 02:59:37;;;;;;;6.00;1.85;;;;;;;;;;4992954;28;20073;-67
2022/08/25 03:02:04;;;;;;;7.70;1.50;;;;;;;;;;5010774;28;20050;-68
2022/08/25 03:04:30;;;;;;;5.43;1.65;;;;;;;;;;5010930;28;20046;-68
2022/08/25 03:06:57;;;;;;;6.43;1.77;;;;;;;;;;5010992;28;20522;-66
2022/08/25 03:09:25;;;;;;;8.65;1.77;;;;;;;;;;5011934;28;20054;-68
2022/08/25 03:11:51;;;;;;;7.50;1.67;;;;;;;;;;5002284;28;20038;-66
2022/08/25 03:14:17;;;;;;;12.95;1.83;;;;;;;;;;5010443;28;20517;-68
2022/08/25 03:16:43;;;;;;;4.05;1.33;;;;;;;;;;5010154;28;20053;-71
2022/08/25 03:19:10;;;;;;;11.55;2.00;;;;;;;;;;5010901;28;20050;-66
2022/08/25 03:21:37;;;;;;;7.70;1.83;;;;;;;;;;5010271;28;20052;-68
2022/08/25 03:24:03;;;;;;;10.35;2.95;;;;;;;;;;5010264;28;20050;-68
2022/08/25 03:29:14;;;;;;;7.43;1.98;;;;;;;;;;5000324;28;20504;-68
2022/08/25 03:31:43;;;;;;;8.32;1.80;;;;;;;;;;4991238;28;20117;-67
2022/08/25 03:34:10;;;;;;;7.55;2.00;;;;;;;;;;4991862;28;20504;-67
2022/08/25 03:36:36;;;;;;;4.22;1.63;;;;;;;;;;4991736;28;20492;-68
2022/08/25 03:39:03;;;;;;;8.90;2.13;;;;;;;;;;4990806;28;20105;-66
2022/08/25 03:41:31;;;;;;;5.72;1.90;;;;;;;;;;4990699;28;20055;-67
2022/08/25 03:43:58;;;;;;;13.50;2.00;;;;;;;;;;4991133;28;20046;-66
2022/08/25 03:46:30;;;;;;;8.48;2.15;;;;;;;;;;4973807;28;20500;-67
2022/08/25 03:48:57;;;;;;;6.57;1.77;;;;;;;;;;4990924;28;20415;-68
2022/08/25 03:51:26;;;;;;;10.30;1.88;;;;;;;;;;4989845;28;20050;-66
2022/08/25 03:53:52;;;;;;;6.50;2.05;;;;;;;;;;4992034;28;20056;-67
2022/08/25 03:56:18;;;;;;;6.63;1.80;;;;;;;;;;4991733;28;20217;-66
2022/08/25 03:58:44;;;;;;;10.43;2.20;;;;;;;;;;4990803;28;20133;-68
2022/08/25 04:01:10;;;;;;;14.85;1.95;;;;;;;;;;4990633;28;20055;-67
2022/08/25 04:03:36;;;;;;;7.95;1.70;;;;;;;;;;4991269;28;20058;-67
2022/08/25 04:06:04;;;;;;;10.10;2.10;;;;;;;;;;4990871;28;20138;-67
2022/08/25 04:08:30;;;;;;;10.50;1.83;;;;;;;;;;4973349;28;20552;-67
2022/08/25 04:10:56;;;;;;;8.68;1.92;;;;;;;;;;4991795;28;20440;-66
2022/08/25 04:13:22;;;;;;;10.35;2.38;;;;;;;;;;5011378;28;20456;-66
2022/08/25 04:15:48;;;;;;;7.65;2.05;;;;;;;;;;5011612;28;20089;-66
2022/08/25 04:18:14;;;;;;;7.40;2.33;;;;;;;;;;5009733;28;20818;-67
2022/08/25 04:20:41;;;;;;;10.35;2.03;;;;;;;;;;4995521;28;20050;-67
2022/08/25 04:23:09;;;;;;;8.98;2.13;;;;;;;;;;4993788;28;20108;-66
2022/08/25 04:25:41;;;;;;;6.07;1.63;;;;;;;;;;4994516;28;20046;-67
2022/08/25 04:28:09;;;;;;;8.25;1.75;;;;;;;;;;4994706;28;20108;-67
2022/08/25 04:30:35;;;;;;;6.40;2.05;;;;;;;;;;4993752;28;20051;-67
2022/08/25 04:33:01;;;;;;;11.60;2.10;;;;;;;;;;4993800;28;20054;-69
2022/08/25 04:35:27;;;;;;;5.50;1.70;;;;;;;;;;4993974;28;20129;-69
2022/08/25 04:37:53;;;;;;;5.85;2.10;;;;;;;;;;4994922;28;20137;-66
2022/08/25 04:40:19;;;;;;;9.85;1.73;;;;;;;;;;4993987;28;20047;-70
2022/08/25 04:42:45;;;;;;;9.52;1.80;;;;;;;;;;4993730;28;20116;-69
2022/08/25 04:45:11;;;;;;;5.97;1.80;;;;;;;;;;4994305;28;20055;-67
2022/08/25 04:47:37;;;;;;;7.78;1.95;;;;;;;;;;4994347;28;20054;-66
2022/08/25 04:50:05;;;;;;;7.15;2.22;;;;;;;;;;4994863;28;20054;-67
2022/08/25 04:52:31;;;;;;;7.68;1.90;;;;;;;;;;4995294;28;20050;-68
2022/08/25 04:54:57;;;;;;;12.50;2.15;;;;;;;;;;4994756;28;20196;-67
2022/08/25 04:57:23;;;;;;;10.10;2.05;;;;;;;;;;4993430;28;20471;-68
2022/08/25 04:59:49;;;;;;;7.00;2.20;;;;;;;;;;4993243;28;20046;-67
2022/08/25 05:02:14;;;;;;;12.65;2.38;;;;;;;;;;4994053;28;20105;-68
2022/08/25 05:04:40;;;;;;;9.15;2.08;;;;;;;;;;4994001;28;20054;-67
2022/08/25 05:07:06;;;;;;;9.85;2.22;;;;;;;;;;4993739;28;20047;-65
2022/08/25 05:09:32;;;;;;;7.55;2.40;;;;;;;;;;4993839;28;20046;-65
2022/08/25 05:12:00;;;;;;;8.40;2.50;;;;;;;;;;5005439;28;20045;-66
2022/08/25 05:14:26;;;;;;;9.15;2.30;;;;;;;;;;5014125;28;20131;-68
2022/08/25 05:16:52;;;;;;;12.25;2.85;;;;;;;;;;5000076;28;20058;-66
2022/08/25 05:19:18;;;;;;;14.23;3.00;;;;;;;;;;4993798;28;20050;-66
2022/08/25 05:21:44;;;;;;;14.35;3.03;;;;;;;;;;4993010;28;20049;-65
2022/08/25 05:24:10;;;;;;;10.10;3.08;;;;;;;;;;4993279;28;20061;-65
2022/08/25 05:26:37;;;;;;;9.55;2.90;;;;;;;;;;4994256;28;20192;-68
2022/08/25 05:29:04;;;;;;;8.50;2.95;;;;;;;;;;4996393;28;20589;-66
2022/08/25 05:31:31;;;;;;;13.35;2.80;;;;;;;;;;4992982;28;20050;-66
2022/08/25 05:33:58;;;;;;;9.68;2.33;;;;;;;;;;4993639;28;20046;-65
2022/08/25 05:36:25;;;;;;;7.45;2.78;;;;;;;;;;4992293;28;20046;-66
2022/08/25 05:38:52;;;;;;;9.95;3.13;;;;;;;;;;4994253;28;20517;-66
2022/08/25 05:41:21;;;;;;;10.02;2.90;;;;;;;;;;4992437;28;20518;-67
2022/08/25 05:43:48;;;;;;;9.00;2.83;;;;;;;;;;4992436;28;20043;-67
2022/08/25 05:46:15;;;;;;;7.80;2.58;;;;;;;;;;4992807;28;20061;-66
2022/08/25 05:48:42;;;;;;;9.85;2.65;;;;;;;;;;4992597;28;20120;-66
2022/08/25 05:51:09;;;;;;;10.60;2.40;;;;;;;;;;4992442;28;20519;-68
2022/08/25 05:53:36;;;;;;;7.40;2.90;;;;;;;;;;4991959;28;20042;-66
2022/08/25 05:56:03;;;;;;;7.85;2.65;;;;;;;;;;4991742;28;20071;-66
2022/08/25 05:58:30;;;;;;;8.43;2.50;;;;;;;;;;4975389;28;20500;-67
2022/08/25 06:02:39;;;;;;;7.90;2.20;;;;;;;;;;4992819;28;20104;-65
2022/08/25 06:03:44;;;;;;;8.57;2.90;;;;;;;;;;4992333;28;20112;-67
2022/08/25 06:06:09;;;;;;;8.07;2.25;;;;;;;;;;5004884;28;20061;-67
2022/08/25 06:08:35;;;;;;;12.68;3.00;;;;;;;;;;5011569;28;20049;-67
2022/08/25 06:11:01;;;;;;;8.50;2.28;;;;;;;;;;5011072;28;20054;-65
2022/08/25 06:13:27;;;;;;;13.40;2.60;;;;;;;;;;5011862;28;20064;-66
2022/08/25 06:15:57;;;;;;;11.13;2.70;;;;;;;;;;5012911;28;20175;-72
2022/08/25 06:18:23;;;;;;;9.30;2.60;;;;;;;;;;5011296;28;20122;-65
2022/08/25 06:20:49;;;;;;;10.85;2.88;;;;;;;;;;5011835;28;20081;-68
2022/08/25 06:23:17;;;;;;;7.85;2.25;;;;;;;;;;5012189;28;20149;-66
2022/08/25 06:25:51;;;;;;;11.77;2.80;;;;;;;;;;5011855;28;20049;-67
2022/08/25 06:28:18;;;;;;;7.80;2.33;;;;;;;;;;4994188;28;20091;-65
2022/08/25 06:30:45;;;;;;;10.25;2.17;;;;;;;;;;5011535;28;20056;-68
2022/08/25 06:33:12;;;;;;;8.55;2.30;;;;;;;;;;5013771;28;20121;-67
2022/08/25 06:35:41;;;;;;;6.30;2.40;;;;;;;;;;4993922;28;20086;-67
2022/08/25 06:38:07;;;;;;;10.02;2.58;;;;;;;;;;4993525;28;20050;-67
2022/08/25 06:40:33;;;;;;;9.73;2.45;;;;;;;;;;5010785;28;20466;-66
2022/08/25 06:42:59;;;;;;;9.75;2.53;;;;;;;;;;5008485;28;20046;-66
2022/08/25 06:45:24;;;;;;;14.45;3.22;;;;;;;;;;4992620;28;20054;-66
2022/08/25 06:47:51;;;;;;;8.68;2.50;;;;;;;;;;4991903;28;20062;-67
2022/08/25 06:50:17;;;;;;;13.38;2.85;;;;;;;;;;4991580;28;20042;-69
2022/08/25 06:52:43;;;;;;;10.52;2.80;;;;;;;;;;4993204;28;20054;-66
2022/08/25 06:55:09;;;;;;;10.50;2.85;;;;;;;;;;4991710;28;20480;-69
2022/08/25 06:57:35;;;;;;;9.90;2.50;;;;;;;;;;4992599;28;20072;-66
2022/08/25 07:00:04;;;;;;;9.48;2.88;;;;;;;;;;4992107;28;20054;-66
2022/08/25 07:02:31;;;;;;;8.75;2.50;;;;;;;;;;4992946;28;20578;-68
2022/08/25 07:04:56;;;;;;;12.48;2.78;;;;;;;;;;4992772;28;20046;-66
2022/08/25 07:07:22;;;;;;;5.68;2.42;;;;;;;;;;4993538;28;20061;-68
2022/08/25 07:09:48;;;;;;;10.27;2.13;;;;;;;;;;4993475;28;20400;-68
2022/08/25 07:12:14;;;;;;;7.80;2.20;;;;;;;;;;5012222;28;20050;-65
2022/08/25 07:14:39;;;;;;;5.45;1.88;;;;;;;;;;5010995;28;20869;-66
2022/08/25 07:17:06;;;;;;;4.70;2.13;;;;;;;;;;5011035;28;20066;-66
2022/08/25 07:19:31;;;;;;;9.27;2.00;;;;;;;;;;5011468;28;20045;-67
2022/08/25 07:21:57;;;;;;;9.60;2.30;;;;;;;;;;4993265;28;20127;-68
2022/08/25 07:24:23;;;;;;;9.07;2.33;;;;;;;;;;5010835;28;20100;-68
2022/08/25 07:26:50;;;;;;;7.90;2.38;;;;;;;;;;5002177;28;20108;-69
2022/08/25 07:29:21;;;;;;;10.25;2.33;;;;;;;;;;4991476;28;20496;-66
2022/08/25 07:31:47;;;;;;;8.77;2.70;;;;;;;;;;4991236;28;20058;-65
2022/08/25 07:36:58;;;;;;;10.07;2.00;;;;;;;;;;5011749;28;20057;-67
2022/08/25 07:39:26;;;;;;;12.60;2.40;;;;;;;;;;5011625;28;20132;-67
2022/08/25 07:41:52;;;;;;;6.47;1.70;;;;;;;;;;5011305;28;20050;-67
2022/08/25 07:44:20;;;;;;;7.82;2.38;;;;;;;;;;4999484;28;20082;-68
2022/08/25 07:46:47;;;;;;;8.50;1.92;;;;;;;;;;4991943;28;20073;-67
2022/08/25 07:49:13;;;;;;;7.78;2.15;;;;;;;;;;4991804;28;20088;-70
2022/08/25 07:51:39;;;;;;;7.25;2.22;;;;;;;;;;4991762;28;20381;-68
2022/08/25 07:54:05;;;;;;;5.65;2.20;;;;;;;;;;4991093;28;20181;-68
2022/08/25 07:56:31;;;;;;;6.82;2.30;;;;;;;;;;4994447;28;20049;-66
2022/08/25 07:58:57;;;;;;;10.95;3.03;;;;;;;;;;4996469;28;20050;-65
2022/08/25 08:01:24;;;;;;;7.35;2.42;;;;;;;;;;4997004;28;20046;-67
2022/08/25 08:03:50;;;;;;;12.30;2.45;;;;;;;;;;4996586;28;20050;-68
2022/08/25 08:06:19;;;;;;;8.98;2.00;;;;;;;;;;4996825;28;20129;-67
2022/08/25 08:08:48;;;;;;;5.20;2.03;;;;;;;;;;4996502;28;20526;-67
2022/08/25 08:11:16;;;;;;;7.70;2.45;;;;;;;;;;4995954;28;20050;-69
2022/08/25 08:13:43;;;;;;;4.97;2.28;;;;;;;;;;4996806;28;20050;-67
2022/08/25 08:16:10;;;;;;;11.02;2.38;;;;;;;;;;4996919;28;20046;-67
2022/08/25 08:18:37;;;;;;;12.82;3.25;;;;;;;;;;4996535;28;20066;-69
2022/08/25 08:21:03;;;;;;;11.40;3.58;;;;;;;;;;4978121;28;20056;-66
2022/08/25 08:23:29;;;;;;;9.38;3.25;;;;;;;;;;4994351;28;20125;-67
2022/08/25 08:25:55;;;;;;;8.00;2.70;;;;;;;;;;5009353;28;20045;-68
2022/08/25 08:28:21;;;;;;;8.82;2.45;;;;;;;;;;5015916;28;20540;-68
2022/08/25 08:30:47;;;;;;;6.93;2.22;;;;;;;;;;5015657;28;20062;-67
2022/08/25 08:33:13;;;;;;;8.00;2.58;;;;;;;;;;5015101;28;20046;-67
2022/08/25 08:35:40;;;;;;;10.55;2.10;;;;;;;;;;5000154;28;20074;-68
2022/08/25 08:38:06;;;;;;;9.75;2.58;;;;;;;;;;4994738;28;20145;-69
2022/08/25 08:42:15;;;;;;;12.45;1.90;;;;;;;;;;4994554;28;20129;-68
2022/08/25 08:43:31;;;;;;;10.50;2.53;;;;;;;;;;4993809;28;20054;-67
2022/08/25 08:45:57;;;;;;;5.70;1.95;;;;;;;;;;4994063;28;20050;-69
2022/08/25 08:48:32;;;;;;;9.52;2.17;;;;;;;;;;4994446;28;20451;-67
2022/08/25 08:51:23;;;;;;;4.57;2.05;;;;;;;;;;4994717;28;20197;-68
2022/08/25 08:54:12;;;;;;;7.63;2.20;;;;;;;;;;4994386;28;20053;-68
2022/08/25 08:56:41;;;;;;;10.50;2.22;;;;;;;;;;4993570;28;20358;-67
2022/08/25 08:59:14;;;;;;;5.68;2.35;;;;;;;;;;4993871;28;20439;-66
2022/08/25 09:01:40;;;;;;;;;;;;;;;;;;4994397;28;20054;-66
2022/08/25 09:04:16;;;;;;;8.25;2.30;;;;;;;;;;4977173;28;20435;-68
2022/08/25 09:06:48;;;;;;;7.22;2.03;;;;;;;;;;4994317;28;20060;-68
2022/08/25 09:09:22;;;;;;;5.03;1.98;;;;;;;;;;4997792;28;20073;-68
2022/08/25 09:11:48;;;;;;;4.60;1.85;;;;;;;;;;5007815;28;20074;-69
2022/08/25 09:14:38;;;;;;;7.53;1.98;;;;;;;;;;4993881;28;20081;-69
2022/08/25 09:17:20;;;;;;;6.38;2.20;;;;;;;;;;4993451;28;20145;-67
2022/08/25 09:20:11;;;;;;;6.55;2.15;;;;;;;;;;4993484;28;20051;-69
2022/08/25 09:23:01;;;;;;;11.32;3.28;;;;;;;;;;4994089;28;20051;-67
2022/08/25 09:25:40;;;;;;;13.98;2.35;;;;;;;;;;4976641;28;20057;-68
2022/08/25 09:28:21;;;;;;;8.95;2.50;;;;;;;;;;4994584;28;20451;-68
2022/08/25 09:30:56;;;;;;;11.07;2.47;;;;;;;;;;4994268;28;20426;-68
2022/08/25 09:33:25;;;;;;;8.88;2.25;;;;;;;;;;4995610;28;20051;-70
2022/08/25 09:35:53;;;;;;;12.77;3.17;;;;;;;;;;4994399;28;20050;-67
2022/08/25 09:38:20;;;;;;;7.68;2.80;;;;;;;;;;4993375;28;20050;-68
2022/08/25 09:40:49;;;;;;;8.27;2.80;;;;;;;;;;4992970;28;20408;-68
2022/08/25 09:43:22;;;;;;;7.55;2.28;;;;;;;;;;4993651;28;20050;-69
2022/08/25 09:45:56;;;;;;;;;;;;;;;;;;4993396;28;20054;-69
2022/08/25 09:48:36;;;;;;;7.43;2.10;;;;;;;;;;4993248;28;19957;-69
2022/08/25 09:51:27;;;;;;;6.93;2.28;;;;;;;;;;4993011;28;20104;-69
2022/08/25 09:54:17;;;;;;;8.73;2.28;;;;;;;;;;4993482;28;20050;-68
2022/08/25 09:56:54;;;;;;;8.43;2.38;;;;;;;;;;4992793;28;20058;-68
2022/08/25 09:59:33;;;;;;;9.00;2.13;;;;;;;;;;5000333;28;20057;-67
2022/08/25 10:02:02;;;;;;;11.65;2.63;;;;;;;;;;5006230;28;20116;-71
2022/08/25 10:04:36;;;;;;;9.82;2.15;;;;;;;;;;4997795;28;20058;-67
2022/08/25 10:07:17;;;;;;;7.38;2.45;;;;;;;;;;5014957;28;20136;-73
2022/08/25 10:09:54;;;;;;;8.98;2.15;;;;;;;;;;5012859;28;20050;-72
2022/08/25 10:12:28;;;;;;;6.55;2.00;;;;;;;;;;5012826;28;20046;-69
2022/08/25 10:14:54;;;;;;;12.35;2.53;;;;;;;;;;5013174;28;20512;-68
2022/08/25 10:17:29;;;;;;;8.27;2.30;;;;;;;;;;5001700;28;20133;-69
2022/08/25 10:20:10;;;;;;;5.93;2.30;;;;;;;;;;4975184;28;20716;-69
2022/08/25 10:22:38;;;;;;;9.77;2.70;;;;;;;;;;5001414;28;20112;-68
2022/08/25 10:25:07;;;;;;;8.00;2.40;;;;;;;;;;5011963;28;20092;-66
2022/08/25 10:27:33;;;;;;;5.20;2.20;;;;;;;;;;5014621;28;20054;-68
2022/08/25 10:30:09;;;;;;;13.10;2.42;;;;;;;;;;5013074;28;20137;-69
2022/08/25 10:32:45;;;;;;;8.27;1.95;;;;;;;;;;5012659;28;20511;-72
2022/08/25 10:35:16;;;;;;;5.20;2.00;;;;;;;;;;4977205;28;20043;-70
2022/08/25 10:38:08;;;;;;;13.73;2.30;;;;;;;;;;5013948;28;20390;-69
2022/08/25 10:40:56;;;;;;;13.43;1.98;;;;;;;;;;5013265;28;20046;-68
2022/08/25 10:43:30;;;;;;;8.82;2.00;;;;;;;;;;5012237;28;20061;-69
2022/08/25 10:46:27;;;;;;;7.90;2.50;;;;;;;;;;4994600;28;20054;-67
2022/08/25 10:49:15;;;;;;;5.38;2.20;;;;;;;;;;5011809;28;20049;-70
2022/08/25 10:51:47;;;;;;;8.50;2.22;;;;;;;;;;4996438;28;20046;-69
2022/08/25 10:54:24;;;;;;;7.47;2.08;;;;;;;;;;4998754;28;20046;-71
2022/08/25 10:57:22;;;;;;;9.32;2.00;;;;;;;;;;5011714;28;20054;-70
2022/08/25 11:00:25;;;;;;;12.88;2.35;;;;;;;;;;5004281;28;20145;-69
2022/08/25 11:03:00;;;;;;;8.52;2.30;;;;;;;;;;4968353;28;20065;-69
2022/08/25 11:06:01;;;;;;;11.80;2.42;;;;;;;;;;5010684;28;20054;-69
2022/08/25 11:08:36;;;;;;;6.85;2.20;;;;;;;;;;4997654;28;20046;-70
2022/08/25 11:11:24;;;;;;;8.20;2.10;;;;;;;;;;5009296;28;20136;-69
2022/08/25 11:13:58;;;;;;;7.45;2.08;;;;;;;;;;5011675;28;20054;-68
2022/08/25 11:16:40;;;;;;;13.45;2.50;;;;;;;;;;4993508;28;20050;-68
2022/08/25 11:19:18;;;;;;;8.70;1.90;;;;;;;;;;5011274;28;20078;-69
2022/08/25 11:21:59;;;;;;;8.27;2.17;;;;;;;;;;5010691;28;20500;-68
2022/08/25 11:25:03;;;;;;;8.85;2.08;;;;;;;;;;5005222;28;20070;-68
2022/08/25 11:27:59;;;;;;;9.77;2.58;;;;;;;;;;4992122;28;20403;-68
2022/08/25 11:30:25;;;;;;;6.18;1.90;;;;;;;;;;4991369;28;20042;-70
2022/08/25 11:32:53;;;;;;;9.70;2.28;;;;;;;;;;4991336;28;20523;-68
2022/08/25 11:35:35;;;;;;;9.40;2.60;;;;;;;;;;4990380;28;20054;-71
2022/08/25 11:38:27;;;;;;;8.07;2.10;;;;;;;;;;4990333;28;20137;-68
2022/08/25 11:41:02;;;;;;;9.02;2.42;;;;;;;;;;4956984;28;20054;-68
2022/08/25 11:43:55;;;;;;;8.32;2.63;;;;;;;;;;5013292;28;20149;-69
2022/08/25 11:47:11;;;;;;;6.05;2.22;;;;;;;;;;5010420;28;20053;-67
2022/08/25 11:49:59;;;;;;;8.20;2.10;;;;;;;;;;4931270;29;20063;-73
2022/08/25 11:52:48;;;;;;;9.70;2.10;;;;;;;;;;4932777;29;20079;-71
2022/08/25 11:55:44;;;;;;;6.50;2.20;;;;;;;;;;4930065;29;20044;-69
2022/08/25 11:58:24;;;;;;;11.32;2.25;;;;;;;;;;4930734;29;20062;-69
2022/08/25 12:00:50;;;;;;;11.43;2.33;;;;;;;;;;4930248;29;20545;-70
2022/08/25 12:03:31;;;;;;;8.63;2.10;;;;;;;;;;4930863;29;20102;-72
2022/08/25 12:06:24;;;;;;;8.00;2.15;;;;;;;;;;4915016;29;20122;-67
2022/08/25 12:08:58;;;;;;;10.15;2.50;;;;;;;;;;4931043;29;20059;-69
2022/08/25 12:11:44;;;;;;;8.65;2.20;;;;;;;;;;4930948;29;20134;-68
2022/08/25 12:14:13;;;;;;;6.85;2.25;;;;;;;;;;4930659;29;20520;-68
2022/08/25 12:16:53;;;;;;;10.15;2.50;;;;;;;;;;4930307;29;20130;-69
2022/08/25 12:19:33;;;;;;;4.68;1.70;;;;;;;;;;4930823;29;20052;-68
2022/08/25 12:22:01;;;;;;;7.03;1.90;;;;;;;;;;4930470;29;20119;-69
2022/08/25 12:24:55;;;;;;;8.00;1.98;;;;;;;;;;4944234;28;20065;-68
2022/08/25 12:27:38;;;;;;;6.35;1.88;;;;;;;;;;4973780;28;20411;-68
2022/08/25 12:30:17;;;;;;;8.35;2.10;;;;;;;;;;4990778;28;20050;-68
2022/08/25 12:33:10;;;;;;;6.72;2.08;;;;;;;;;;4998009;28;20125;-69
2022/08/25 12:36:00;;;;;;;6.30;2.07;;;;;;;;;;5010070;28;20499;-69
2022/08/25 12:38:52;;;;;;;9.07;2.20;;;;;;;;;;5009868;28;20058;-69
2022/08/25 12:41:25;;;;;;;6.47;1.95;;;;;;;;;;5006807;28;20132;-69
2022/08/25 12:44:00;;;;;;;5.35;2.08;;;;;;;;;;5013777;28;20411;-67
2022/08/25 12:46:29;;;;;;;7.78;1.98;;;;;;;;;;5013727;28;20077;-68
2022/08/25 12:49:02;;;;;;;6.03;2.13;;;;;;;;;;5013371;28;20042;-69
2022/08/25 12:51:43;;;;;;;5.38;2.20;;;;;;;;;;5013663;28;20129;-68
2022/08/25 12:54:15;;;;;;;5.88;2.17;;;;;;;;;;4995787;28;20054;-69
2022/08/25 12:56:45;;;;;;;8.38;2.00;;;;;;;;;;5013657;28;20148;-68
2022/08/25 12:59:14;;;;;;;6.30;2.20;;;;;;;;;;5014178;28;20103;-70
2022/08/25 13:01:58;;;;;;;7.68;1.85;;;;;;;;;;5012953;28;20075;-70
2022/08/25 13:04:39;;;;;;;7.03;1.90;;;;;;;;;;5013790;28;20176;-68
2022/08/25 13:07:30;;;;;;;5.22;1.83;;;;;;;;;;5013115;28;20042;-68
2022/08/25 13:10:19;;;;;;;7.15;2.00;;;;;;;;;;5004181;28;20116;-68
2022/08/25 13:12:53;;;;;;;7.95;2.15;;;;;;;;;;4995228;28;20038;-69
2022/08/25 13:15:39;;;;;;;9.50;1.92;;;;;;;;;;4995117;28;20046;-67
2022/08/25 13:18:30;;;;;;;6.47;2.25;;;;;;;;;;4994571;28;20051;-69
2022/08/25 13:21:16;;;;;;;5.57;1.90;;;;;;;;;;4983811;28;20050;-69
2022/08/25 13:23:46;;;;;;;5.72;1.83;;;;;;;;;;4995221;28;20060;-69
2022/08/25 13:26:23;;;;;;;3.83;1.60;;;;;;;;;;4994626;28;20489;-69
2022/08/25 13:28:55;;;;;;;9.43;1.70;;;;;;;;;;4994235;28;20054;-70
2022/08/25 13:31:21;;;;;;;9.50;1.90;;;;;;;;;;4994273;28;20057;-66
2022/08/25 13:33:56;;;;;;;7.13;2.03;;;;;;;;;;4994549;28;20050;-71
2022/08/25 13:39:15;;;;;;;10.45;2.05;;;;;;;;;;4993469;28;20105;-69
2022/08/25 13:41:47;;;;;;;7.90;2.30;;;;;;;;;;4993312;28;20096;-70
2022/08/25 13:44:14;;;;;;;6.38;1.85;;;;;;;;;;4993301;28;20626;-68
2022/08/25 13:46:41;;;;;;;5.95;1.80;;;;;;;;;;4993093;28;20515;-69
2022/08/25 13:49:08;;;;;;;5.65;1.80;;;;;;;;;;4993771;28;20085;-70
2022/08/25 13:51:36;;;;;;;6.50;1.63;;;;;;;;;;4976516;28;20054;-69
2022/08/25 13:54:05;;;;;;;7.65;2.40;;;;;;;;;;4991993;28;20456;-69
2022/08/25 13:56:40;;;;;;;7.30;1.90;;;;;;;;;;4992321;28;20050;-73
2022/08/25 13:59:20;;;;;;;7.25;1.95;;;;;;;;;;4975392;28;20066;-69
2022/08/25 14:01:48;;;;;;;6.25;2.05;;;;;;;;;;4993704;28;20060;-67
2022/08/25 14:04:26;;;;;;;9.93;2.17;;;;;;;;;;4995684;28;20129;-68
2022/08/25 14:07:14;;;;;;;10.10;2.25;;;;;;;;;;4993068;28;20065;-69
2022/08/25 14:09:48;;;;;;;8.45;1.80;;;;;;;;;;4999757;28;20065;-66
2022/08/25 14:12:37;;;;;;;5.35;1.92;;;;;;;;;;5012322;28;20060;-71
2022/08/25 14:15:26;;;;;;;6.57;2.22;;;;;;;;;;5001246;28;20516;-68
2022/08/25 14:18:06;;;;;;;9.55;1.95;;;;;;;;;;4992542;28;20053;-68
2022/08/25 14:20:33;;;;;;;4.53;1.80;;;;;;;;;;4992043;28;20623;-68
2022/08/25 14:23:13;;;;;;;9.10;2.00;;;;;;;;;;4991764;28;20069;-69
2022/08/25 14:25:40;;;;;;;7.60;2.28;;;;;;;;;;4991802;28;20052;-69
2022/08/25 14:28:14;;;;;;;15.02;2.83;;;;;;;;;;4992651;28;20076;-70
2022/08/25 14:30:48;;;;;;;5.78;2.08;;;;;;;;;;4991852;28;20054;-67
2022/08/25 14:33:16;;;;;;;11.30;2.30;;;;;;;;;;5011649;28;20136;-69
2022/08/25 14:35:46;;;;;;;8.60;2.33;;;;;;;;;;5012193;28;20115;-69
2022/08/25 14:38:13;;;;;;;8.02;1.90;;;;;;;;;;5012081;28;20050;-67
2022/08/25 14:40:39;;;;;;;6.13;1.90;;;;;;;;;;5012579;28;20048;-70
2022/08/25 14:43:07;;;;;;;8.35;1.80;;;;;;;;;;4996828;28;20629;-71
2022/08/25 14:45:39;;;;;;;7.57;2.25;;;;;;;;;;5014593;28;20060;-70
2022/08/25 14:48:08;;;;;;;9.68;2.15;;;;;;;;;;5012516;28;20052;-69
2022/08/25 14:50:35;;;;;;;6.75;1.95;;;;;;;;;;4993692;28;20468;-69
2022/08/25 14:53:02;;;;;;;9.65;2.25;;;;;;;;;;4991664;28;20062;-70
2022/08/25 14:55:28;;;;;;;4.43;1.92;;;;;;;;;;4992023;28;20061;-67
2022/08/25 14:57:54;;;;;;;12.00;2.35;;;;;;;;;;4991899;28;20065;-71
2022/08/25 15:00:20;;;;;;;8.55;1.80;;;;;;;;;;4991842;28;20132;-69
2022/08/25 15:02:48;;;;;;;6.10;1.38;;;;;;;;;;4974477;28;20388;-68
2022/08/25 15:05:16;;;;;;;10.15;2.15;;;;;;;;;;4994285;28;20054;-70
2022/08/25 15:10:26;;;;;;;7.05;2.10;;;;;;;;;;5006089;28;20085;-70
2022/08/25 15:12:52;;;;;;;13.05;1.90;;;;;;;;;;5013519;28;20467;-69
2022/08/25 15:15:19;;;;;;;8.68;2.03;;;;;;;;;;4965692;28;20070;-69
2022/08/25 15:17:46;;;;;;;10.02;1.77;;;;;;;;;;4992935;28;20389;-71